createdAt,value
2018-04-01T00:01:45.779Z,9.71
2018-04-01T00:04:12.358Z,9.76
2018-04-01T00:06:39.851Z,9.73
2018-04-01T00:09:06.583Z,9.70
2018-04-01T00:11:33.186Z,9.68
2018-04-01T00:13:59.744Z,9.67
2018-04-01T00:16:27.056Z,9.63
2018-04-01T00:18:53.824Z,9.55
2018-04-01T00:21:21.230Z,9.58
2018-04-01T00:23:48.174Z,9.60
2018-04-01T00:26:14.956Z,9.69
2018-04-01T00:28:41.709Z,9.59
2018-04-01T00:31:09.384Z,9.56
2018-04-01T00:33:36.684Z,9.61
2018-04-01T00:36:03.404Z,9.61
2018-04-01T00:38:30.007Z,9.63
2018-04-01T00:40:57.445Z,9.63
2018-04-01T00:43:24.057Z,9.64
2018-04-01T00:45:50.637Z,9.63
2018-04-01T00:48:17.989Z,9.63
2018-04-01T00:50:45.292Z,9.63
2018-04-01T00:53:12.021Z,9.49
2018-04-01T00:55:38.828Z,9.52
2018-04-01T00:58:06.134Z,9.52
2018-04-01T01:00:32.742Z,9.48
2018-04-01T01:02:59.334Z,9.57
2018-04-01T01:05:25.907Z,9.60
2018-04-01T01:07:53.211Z,9.63
2018-04-01T01:10:19.973Z,9.64
2018-04-01T01:12:46.538Z,9.62
2018-04-01T01:15:13.948Z,9.64
2018-04-01T01:17:40.548Z,9.67
2018-04-01T01:20:07.108Z,9.73
2018-04-01T01:22:33.732Z,9.76
2018-04-01T01:25:00.329Z,9.72
2018-04-01T01:27:27.625Z,9.68
2018-04-01T01:29:54.266Z,9.69
2018-04-01T01:32:20.846Z,9.55
2018-04-01T01:34:47.482Z,9.56
2018-04-01T01:37:14.093Z,9.52
2018-04-01T01:39:40.655Z,9.43
2018-04-01T01:42:07.258Z,9.39
2018-04-01T01:44:33.827Z,9.35
2018-04-01T01:47:01.441Z,9.35
2018-04-01T01:49:28.051Z,9.36
2018-04-01T01:51:55.388Z,9.29
2018-04-01T01:54:21.952Z,9.22
2018-04-01T01:56:49.445Z,9.20
2018-04-01T01:59:16.052Z,9.23
2018-04-01T02:01:43.538Z,9.25
2018-04-01T02:04:10.107Z,9.24
2018-04-01T02:06:36.664Z,9.27
2018-04-01T02:09:04.512Z,9.29
2018-04-01T02:11:31.076Z,9.29
2018-04-01T02:13:58.390Z,9.32
2018-04-01T02:16:24.963Z,9.30
2018-04-01T02:18:52.434Z,9.35
2018-04-01T02:21:19.047Z,9.30
2018-04-01T02:23:45.769Z,9.35
2018-04-01T02:26:12.391Z,9.34
2018-04-01T02:28:39.138Z,9.30
2018-04-01T02:31:05.716Z,9.35
2018-04-01T02:33:33.021Z,9.42
2018-04-01T02:35:59.771Z,9.38
2018-04-01T02:38:26.385Z,9.37
2018-04-01T02:40:53.317Z,9.41
2018-04-01T02:43:19.903Z,9.41
2018-04-01T02:45:46.534Z,9.41
2018-04-01T02:48:13.122Z,9.41
2018-04-01T02:50:39.688Z,9.38
2018-04-01T02:53:06.222Z,9.38
2018-04-01T02:55:32.798Z,9.35
2018-04-01T02:57:59.457Z,9.31
2018-04-01T03:00:26.789Z,9.33
2018-04-01T03:02:53.370Z,9.33
2018-04-01T03:05:19.935Z,9.34
2018-04-01T03:07:47.400Z,9.35
2018-04-01T03:10:13.967Z,9.33
2018-04-01T03:12:41.443Z,9.40
2018-04-01T03:15:08.086Z,9.40
2018-04-01T03:17:34.716Z,9.41
2018-04-01T03:20:02.049Z,9.42
2018-04-01T03:22:28.628Z,9.49
2018-04-01T03:24:55.212Z,9.54
2018-04-01T03:27:21.769Z,9.55
2018-04-01T03:29:49.168Z,9.54
2018-04-01T03:32:15.737Z,9.55
2018-04-01T03:34:42.478Z,9.50
2018-04-01T03:37:09.185Z,9.50
2018-04-01T03:39:35.736Z,9.49
2018-04-01T03:42:02.436Z,9.53
2018-04-01T03:44:29.025Z,9.47
2018-04-01T03:46:55.621Z,9.50
2018-04-01T03:49:22.176Z,9.47
2018-04-01T03:51:48.904Z,9.46
2018-04-01T03:54:15.507Z,9.40
2018-04-01T03:56:42.065Z,9.48
2018-04-01T03:59:08.704Z,9.42
2018-04-01T04:01:35.304Z,9.40
2018-04-01T04:04:02.155Z,9.37
2018-04-01T04:06:29.244Z,9.36
2018-04-01T04:08:55.888Z,9.38
2018-04-01T04:11:22.532Z,9.43
2018-04-01T04:13:49.344Z,9.40
2018-04-01T04:16:16.893Z,9.35
2018-04-01T04:18:44.298Z,9.32
2018-04-01T04:21:11.011Z,9.34
2018-04-01T04:23:37.812Z,9.30
2018-04-01T04:26:04.397Z,9.31
2018-04-01T04:28:30.980Z,9.32
2018-04-01T04:30:57.563Z,9.28
2018-04-01T04:33:24.452Z,9.34
2018-04-01T04:35:51.017Z,9.34
2018-04-01T04:38:17.736Z,9.24
2018-04-01T04:40:44.299Z,9.16
2018-04-01T04:43:11.596Z,9.19
2018-04-01T04:45:38.192Z,9.17
2018-04-01T04:48:05.524Z,9.07
2018-04-01T04:50:32.380Z,9.07
2018-04-01T04:52:59.687Z,9.09
2018-04-01T04:55:26.415Z,9.09
2018-04-01T04:57:52.979Z,9.02
2018-04-01T05:00:19.801Z,8.91
2018-04-01T05:02:46.573Z,8.88
2018-04-01T05:05:13.147Z,9.01
2018-04-01T05:07:40.447Z,9.03
2018-04-01T05:10:07.222Z,8.98
2018-04-01T05:12:33.795Z,8.95
2018-04-01T05:15:00.424Z,8.99
2018-04-01T05:17:27.710Z,9.00
2018-04-01T05:19:55.210Z,9.03
2018-04-01T05:22:21.896Z,9.13
2018-04-01T05:24:48.458Z,9.05
2018-04-01T05:27:15.159Z,9.05
2018-04-01T05:29:41.712Z,9.09
2018-04-01T05:32:08.288Z,9.08
2018-04-01T05:34:34.929Z,9.12
2018-04-01T05:37:01.489Z,9.14
2018-04-01T05:39:28.786Z,9.13
2018-04-01T05:41:55.362Z,9.11
2018-04-01T05:44:21.998Z,9.11
2018-04-01T05:46:48.853Z,9.15
2018-04-01T05:49:16.259Z,9.17
2018-04-01T05:51:42.820Z,9.14
2018-04-01T05:54:09.504Z,9.16
2018-04-01T05:56:36.099Z,9.09
2018-04-01T05:59:02.651Z,9.13
2018-04-01T06:01:29.384Z,9.21
2018-04-01T06:03:55.965Z,9.08
2018-04-01T06:06:23.628Z,9.06
2018-04-01T06:08:50.181Z,9.10
2018-04-01T06:11:16.801Z,9.08
2018-04-01T06:13:43.336Z,9.07
2018-04-01T06:16:10.136Z,9.09
2018-04-01T06:18:36.724Z,9.17
2018-04-01T06:21:04.077Z,9.14
2018-04-01T06:23:30.685Z,9.15
2018-04-01T06:25:58.209Z,9.10
2018-04-01T06:28:25.210Z,9.13
2018-04-01T06:30:51.769Z,9.19
2018-04-01T06:33:18.340Z,9.24
2018-04-01T06:35:45.035Z,9.18
2018-04-01T06:38:11.648Z,9.18
2018-04-01T06:40:38.312Z,9.25
2018-04-01T06:43:04.868Z,9.30
2018-04-01T06:45:31.503Z,9.37
2018-04-01T06:47:58.119Z,9.45
2018-04-01T06:50:24.692Z,9.54
2018-04-01T06:52:51.345Z,9.54
2018-04-01T06:55:18.002Z,9.59
2018-04-01T06:57:45.376Z,9.66
2018-04-01T07:00:12.209Z,9.68
2018-04-01T07:02:39.761Z,9.71
2018-04-01T07:05:07.057Z,9.63
2018-04-01T07:07:33.644Z,9.82
2018-04-01T07:10:00.263Z,9.72
2018-04-01T07:12:26.866Z,9.66
2018-04-01T07:14:53.490Z,9.52
2018-04-01T07:17:20.120Z,9.52
2018-04-01T07:19:46.819Z,9.50
2018-04-01T07:22:13.429Z,9.49
2018-04-01T07:24:40.137Z,9.55
2018-04-01T07:27:06.856Z,9.59
2018-04-01T07:29:34.200Z,9.61
2018-04-01T07:32:00.773Z,9.66
2018-04-01T07:34:27.377Z,9.68
2018-04-01T07:36:54.014Z,9.70
2018-04-01T07:39:20.604Z,9.68
2018-04-01T07:41:47.183Z,9.57
2018-04-01T07:44:14.073Z,9.75
2018-04-01T07:46:40.737Z,9.77
2018-04-01T07:49:08.207Z,9.79
2018-04-01T07:51:34.855Z,9.79
2018-04-01T07:54:01.553Z,9.71
2018-04-01T07:56:28.118Z,9.75
2018-04-01T07:58:54.669Z,9.67
2018-04-01T08:01:21.276Z,9.77
2018-04-01T08:03:47.964Z,9.88
2018-04-01T08:06:15.349Z,9.90
2018-04-01T08:08:41.996Z,9.81
2018-04-01T08:11:08.548Z,9.73
2018-04-01T08:13:35.107Z,9.63
2018-04-01T08:16:01.780Z,9.71
2018-04-01T08:18:29.116Z,9.79
2018-04-01T08:20:56.551Z,10.05
2018-04-01T08:23:23.277Z,9.97
2018-04-01T08:25:49.857Z,9.77
2018-04-01T08:28:16.492Z,9.65
2018-04-01T08:30:43.231Z,9.55
2018-04-01T08:33:09.794Z,9.66
2018-04-01T08:35:37.277Z,9.56
2018-04-01T08:38:03.905Z,9.45
2018-04-01T08:40:30.636Z,9.21
2018-04-01T08:42:57.211Z,9.25
2018-04-01T08:45:23.816Z,9.37
2018-04-01T08:47:50.506Z,9.35
2018-04-01T08:50:17.100Z,9.39
2018-04-01T08:52:43.902Z,9.27
2018-04-01T08:55:11.212Z,9.41
2018-04-01T08:57:37.844Z,9.47
2018-04-01T09:00:04.440Z,9.45
2018-04-01T09:02:32.053Z,9.40
2018-04-01T09:04:58.675Z,9.32
2018-04-01T09:07:25.293Z,9.25
2018-04-01T09:09:51.908Z,9.17
2018-04-01T09:12:18.600Z,9.11
2018-04-01T09:14:45.276Z,9.14
2018-04-01T09:17:11.904Z,9.10
2018-04-01T09:19:38.489Z,9.13
2018-04-01T09:22:05.099Z,9.13
2018-04-01T09:24:32.469Z,9.18
2018-04-01T09:27:00.012Z,9.21
2018-04-01T09:29:27.567Z,9.23
2018-04-01T09:31:54.216Z,9.25
2018-04-01T09:34:21.843Z,9.21
2018-04-01T09:36:48.433Z,9.26
2018-04-01T09:39:15.068Z,9.22
2018-04-01T09:41:42.621Z,9.31
2018-04-01T09:44:10.038Z,9.40
2018-04-01T09:46:36.709Z,9.47
2018-04-01T09:49:03.417Z,9.55
2018-04-01T09:51:33.520Z,9.50
2018-04-01T09:54:00.894Z,9.50
2018-04-01T09:56:27.523Z,9.62
2018-04-01T09:58:54.131Z,9.62
2018-04-01T10:01:23.656Z,9.58
2018-04-01T10:03:51.979Z,9.60
2018-04-01T10:06:20.492Z,9.66
2018-04-01T10:08:49.001Z,9.83
2018-04-01T10:11:18.112Z,9.99
2018-04-01T10:13:46.718Z,10.11
2018-04-01T10:16:15.282Z,10.17
2018-04-01T10:18:43.695Z,10.20
2018-04-01T10:21:12.755Z,10.16
2018-04-01T10:23:41.048Z,10.28
2018-04-01T10:26:09.497Z,10.23
2018-04-01T10:28:37.918Z,10.20
2018-04-01T10:31:06.306Z,10.22
2018-04-01T10:33:35.680Z,10.19
2018-04-01T10:36:04.130Z,10.13
2018-04-01T10:38:32.808Z,9.85
2018-04-01T10:41:01.286Z,9.77
2018-04-01T10:43:29.705Z,9.55
2018-04-01T10:45:58.382Z,9.44
2018-04-01T10:48:26.793Z,9.44
2018-04-01T10:50:56.513Z,9.49
2018-04-01T10:53:25.921Z,9.51
2018-04-01T10:55:53.332Z,9.38
2018-04-01T10:58:20.008Z,9.44
2018-04-01T11:00:46.580Z,9.51
2018-04-01T11:03:13.169Z,9.38
2018-04-01T11:05:39.758Z,9.43
2018-04-01T11:08:06.376Z,9.52
2018-04-01T11:10:33.142Z,9.54
2018-04-01T11:12:59.742Z,9.45
2018-04-01T11:15:27.122Z,9.44
2018-04-01T11:17:53.732Z,9.55
2018-04-01T11:20:21.069Z,9.57
2018-04-01T11:22:47.796Z,9.64
2018-04-01T11:25:14.401Z,9.86
2018-04-01T11:27:41.092Z,9.89
2018-04-01T11:30:07.691Z,10.01
2018-04-01T11:32:34.310Z,10.15
2018-04-01T11:35:00.868Z,10.10
2018-04-01T11:37:27.447Z,10.44
2018-04-01T11:39:54.161Z,10.78
2018-04-01T11:42:20.711Z,11.08
2018-04-01T11:44:47.486Z,11.34
2018-04-01T11:47:14.144Z,11.35
2018-04-01T11:49:40.690Z,11.77
2018-04-01T11:52:07.425Z,12.18
2018-04-01T11:54:33.971Z,12.44
2018-04-01T11:57:00.535Z,12.48
2018-04-01T11:59:27.142Z,12.31
2018-04-01T12:01:53.708Z,11.94
2018-04-01T12:04:20.370Z,11.50
2018-04-01T12:06:47.777Z,11.09
2018-04-01T12:09:14.368Z,10.87
2018-04-01T12:11:41.747Z,10.63
2018-04-01T12:14:08.325Z,10.38
2018-04-01T12:16:34.892Z,10.22
2018-04-01T12:19:02.452Z,10.23
2018-04-01T12:21:29.956Z,10.13
2018-04-01T12:23:56.667Z,10.13
2018-04-01T12:26:23.347Z,10.21
2018-04-01T12:28:49.953Z,10.18
2018-04-01T12:31:16.556Z,10.28
2018-04-01T12:33:43.109Z,10.45
2018-04-01T12:36:10.463Z,10.69
2018-04-01T12:38:37.837Z,11.15
2018-04-01T12:41:04.388Z,11.46
2018-04-01T12:43:30.944Z,11.85
2018-04-01T12:45:58.288Z,12.14
2018-04-01T12:48:25.060Z,12.54
2018-04-01T12:50:51.722Z,12.38
2018-04-01T12:53:19.100Z,12.55
2018-04-01T12:55:45.689Z,12.45
2018-04-01T12:58:12.390Z,12.26
2018-04-01T13:00:41.170Z,12.01
2018-04-01T13:03:07.777Z,11.64
2018-04-01T13:05:35.343Z,11.41
2018-04-01T13:08:02.686Z,11.23
2018-04-01T13:10:29.288Z,11.07
2018-04-01T13:12:55.872Z,11.01
2018-04-01T13:15:23.398Z,11.01
2018-04-01T13:17:49.990Z,11.04
2018-04-01T13:20:16.678Z,11.03
2018-04-01T13:22:43.248Z,11.28
2018-04-01T13:25:10.730Z,11.58
2018-04-01T13:27:37.390Z,11.99
2018-04-01T13:30:04.057Z,12.28
2018-04-01T13:32:30.669Z,12.47
2018-04-01T13:34:57.320Z,12.46
2018-04-01T13:37:23.892Z,12.38
2018-04-01T13:39:51.543Z,12.16
2018-04-01T13:42:18.269Z,11.84
2018-04-01T13:44:44.915Z,11.64
2018-04-01T13:47:11.630Z,11.46
2018-04-01T13:49:38.527Z,11.15
2018-04-01T13:52:05.845Z,11.04
2018-04-01T13:54:32.656Z,11.05
2018-04-01T13:56:59.656Z,10.88
2018-04-01T13:59:27.179Z,10.81
2018-04-01T14:01:53.800Z,10.67
2018-04-01T14:04:20.562Z,10.47
2018-04-01T14:06:47.181Z,10.37
2018-04-01T14:09:13.813Z,10.27
2018-04-01T14:11:40.388Z,10.22
2018-04-01T14:14:08.016Z,10.12
2018-04-01T14:16:34.604Z,10.12
2018-04-01T14:19:01.265Z,10.13
2018-04-01T14:21:27.875Z,10.06
2018-04-01T14:23:54.517Z,9.97
2018-04-01T14:26:21.119Z,9.97
2018-04-01T14:28:47.871Z,10.02
2018-04-01T14:31:14.432Z,10.00
2018-04-01T14:33:41.022Z,9.88
2018-04-01T14:36:07.583Z,9.69
2018-04-01T14:38:34.208Z,9.66
2018-04-01T14:41:00.869Z,9.48
2018-04-01T14:43:27.432Z,9.49
2018-04-01T14:45:54.914Z,9.57
2018-04-01T14:48:21.452Z,9.48
2018-04-01T14:50:48.293Z,9.37
2018-04-01T14:53:14.949Z,9.26
2018-04-01T14:55:41.528Z,9.27
2018-04-01T14:58:08.450Z,9.19
2018-04-01T15:00:35.109Z,9.06
2018-04-01T15:03:02.483Z,9.10
2018-04-01T15:05:29.125Z,9.09
2018-04-01T15:07:56.435Z,9.13
2018-04-01T15:10:23.028Z,9.24
2018-04-01T15:12:49.685Z,9.04
2018-04-01T15:15:17.167Z,8.94
2018-04-01T15:17:43.886Z,9.07
2018-04-01T15:20:10.428Z,9.31
2018-04-01T15:22:37.046Z,9.38
2018-04-01T15:25:03.637Z,9.42
2018-04-01T15:27:30.251Z,9.36
2018-04-01T15:29:56.883Z,9.35
2018-04-01T15:32:23.494Z,9.39
2018-04-01T15:34:50.141Z,9.37
2018-04-01T15:37:16.904Z,9.47
2018-04-01T15:39:43.493Z,9.52
2018-04-01T15:42:10.919Z,9.42
2018-04-01T15:44:37.552Z,9.44
2018-04-01T15:47:04.136Z,9.50
2018-04-01T15:49:31.035Z,9.35
2018-04-01T15:51:57.637Z,9.32
2018-04-01T15:54:24.226Z,9.23
2018-04-01T15:56:50.856Z,9.19
2018-04-01T15:59:17.416Z,9.29
2018-04-01T16:01:44.845Z,9.20
2018-04-01T16:04:11.430Z,9.24
2018-04-01T16:06:38.019Z,9.27
2018-04-01T16:09:04.937Z,9.14
2018-04-01T16:11:31.500Z,9.15
2018-04-01T16:13:58.232Z,8.94
2018-04-01T16:16:24.887Z,9.02
2018-04-01T16:18:51.476Z,9.03
2018-04-01T16:21:18.143Z,8.99
2018-04-01T16:23:44.764Z,9.21
2018-04-01T16:26:11.407Z,9.47
2018-04-01T16:28:40.922Z,9.75
2018-04-01T16:31:07.523Z,9.84
2018-04-01T16:33:34.995Z,9.92
2018-04-01T16:36:02.572Z,10.15
2018-04-01T16:38:30.095Z,10.13
2018-04-01T16:40:56.864Z,10.12
2018-04-01T16:43:24.791Z,10.09
2018-04-01T16:45:53.116Z,10.02
2018-04-01T16:48:20.824Z,10.27
2018-04-01T16:50:49.954Z,10.09
2018-04-01T16:53:17.364Z,10.12
2018-04-01T16:55:44.128Z,10.36
2018-04-01T16:58:14.086Z,10.30
2018-04-01T17:00:41.559Z,10.28
2018-04-01T17:03:09.347Z,9.73
2018-04-01T17:05:36.610Z,9.56
2018-04-01T17:08:04.478Z,9.44
2018-04-01T17:10:31.856Z,9.37
2018-04-01T17:12:58.844Z,9.25
2018-04-01T17:15:26.272Z,9.11
2018-04-01T17:17:54.225Z,9.12
2018-04-01T17:20:21.137Z,9.08
2018-04-01T17:22:50.646Z,9.08
2018-04-01T17:25:17.481Z,8.98
2018-04-01T17:27:45.461Z,9.02
2018-04-01T17:30:15.292Z,8.94
2018-04-01T17:32:42.067Z,8.98
2018-04-01T17:35:09.809Z,9.08
2018-04-01T17:37:36.425Z,9.09
2018-04-01T17:40:03.092Z,9.01
2018-04-01T17:42:29.676Z,8.98
2018-04-01T17:44:56.269Z,8.94
2018-04-01T17:47:23.088Z,8.93
2018-04-01T17:49:49.864Z,8.86
2018-04-01T17:52:16.558Z,8.86
2018-04-01T17:54:43.190Z,8.86
2018-04-01T17:57:09.824Z,8.83
2018-04-01T17:59:36.445Z,8.80
2018-04-01T18:02:03.202Z,8.84
2018-04-01T18:04:29.804Z,8.85
2018-04-01T18:06:56.552Z,8.82
2018-04-01T18:09:23.940Z,8.84
2018-04-01T18:11:50.586Z,8.85
2018-04-01T18:14:17.217Z,8.87
2018-04-01T18:16:43.996Z,8.78
2018-04-01T18:19:10.640Z,8.83
2018-04-01T18:21:37.297Z,8.82
2018-04-01T18:24:03.952Z,8.82
2018-04-01T18:26:30.732Z,8.80
2018-04-01T18:28:58.635Z,8.77
2018-04-01T18:31:25.321Z,8.74
2018-04-01T18:33:51.937Z,8.73
2018-04-01T18:36:18.582Z,8.80
2018-04-01T18:38:45.339Z,8.79
2018-04-01T18:41:11.963Z,8.79
2018-04-01T18:43:38.632Z,8.80
2018-04-01T18:46:05.254Z,8.84
2018-04-01T18:48:31.880Z,8.85
2018-04-01T18:50:58.487Z,8.86
2018-04-01T18:53:25.901Z,8.79
2018-04-01T18:55:52.644Z,8.81
2018-04-01T18:58:19.473Z,8.71
2018-04-01T19:00:46.085Z,8.71
2018-04-01T19:03:12.742Z,8.72
2018-04-01T19:05:39.336Z,8.76
2018-04-01T19:08:05.992Z,8.78
2018-04-01T19:10:33.325Z,8.70
2018-04-01T19:12:59.909Z,8.70
2018-04-01T19:15:26.564Z,8.71
2018-04-01T19:17:55.266Z,8.65
2018-04-01T19:20:25.197Z,8.64
2018-04-01T19:22:53.718Z,8.72
2018-04-01T19:25:22.326Z,8.74
2018-04-01T19:27:51.221Z,8.68
2018-04-01T19:30:19.741Z,8.67
2018-04-01T19:32:48.148Z,8.63
2018-04-01T19:35:17.453Z,8.76
2018-04-01T19:37:45.816Z,8.68
2018-04-01T19:40:15.171Z,8.67
2018-04-01T19:42:43.712Z,8.62
2018-04-01T19:45:13.002Z,8.61
2018-04-01T19:47:42.695Z,8.63
2018-04-01T19:50:11.394Z,8.62
2018-04-01T19:52:40.648Z,8.58
2018-04-01T19:55:09.154Z,8.59
2018-04-01T19:57:37.729Z,8.63
2018-04-01T20:00:06.237Z,8.60
2018-04-01T20:02:35.624Z,8.46
2018-04-01T20:05:04.400Z,8.46
2018-04-01T20:07:32.882Z,8.49
2018-04-01T20:10:01.338Z,8.50
2018-04-01T20:12:29.736Z,8.47
2018-04-01T20:14:58.116Z,8.49
2018-04-01T20:17:27.020Z,8.42
2018-04-01T20:19:55.485Z,8.50
2018-04-01T20:22:23.835Z,8.52
2018-04-01T20:24:52.547Z,8.50
2018-04-01T20:27:21.120Z,8.50
2018-04-01T20:29:49.672Z,8.57
2018-04-01T20:32:18.178Z,8.57
2018-04-01T20:34:46.550Z,8.44
2018-04-01T20:37:15.150Z,8.43
2018-04-01T20:39:43.599Z,8.42
2018-04-01T20:42:12.147Z,8.49
2018-04-01T20:44:40.657Z,8.43
2018-04-01T20:47:10.042Z,8.43
2018-04-01T20:49:38.540Z,8.53
2018-04-01T20:52:08.220Z,8.40
2018-04-01T20:54:37.242Z,8.42
2018-04-01T20:57:06.621Z,8.48
2018-04-01T20:59:34.906Z,8.45
2018-04-01T21:02:03.393Z,8.41
2018-04-01T21:04:31.928Z,8.39
2018-04-01T21:07:00.520Z,8.46
2018-04-01T21:09:29.084Z,8.51
2018-04-01T21:11:57.504Z,8.48
2018-04-01T21:14:26.109Z,8.51
2018-04-01T21:16:55.177Z,8.52
2018-04-01T21:19:23.671Z,8.50
2018-04-01T21:21:52.019Z,8.49
2018-04-01T21:24:20.689Z,8.48
2018-04-01T21:26:49.061Z,8.46
2018-04-01T21:29:17.647Z,8.46
2018-04-01T21:31:47.365Z,8.44
2018-04-01T21:34:15.684Z,8.57
2018-04-01T21:36:43.985Z,8.49
2018-04-01T21:39:13.236Z,8.54
2018-04-01T21:41:41.836Z,8.48
2018-04-01T21:44:10.217Z,8.45
2018-04-01T21:46:38.778Z,8.30
2018-04-01T21:49:07.276Z,8.24
2018-04-01T21:51:35.920Z,8.33
2018-04-01T21:54:04.524Z,8.32
2018-04-01T21:56:33.472Z,8.32
2018-04-01T21:59:02.825Z,8.30
2018-04-01T22:01:31.245Z,8.25
2018-04-01T22:03:59.681Z,8.14
2018-04-01T22:06:28.055Z,8.15
2018-04-01T22:08:56.808Z,8.19
2018-04-01T22:11:25.253Z,8.16
2018-04-01T22:13:53.836Z,8.10
2018-04-01T22:16:22.930Z,7.99
2018-04-01T22:18:51.523Z,7.97
2018-04-01T22:21:20.201Z,7.93
2018-04-01T22:23:49.512Z,7.89
2018-04-01T22:26:18.361Z,7.89
2018-04-01T22:28:46.742Z,7.87
2018-04-01T22:31:15.700Z,7.80
2018-04-01T22:33:52.414Z,7.71
2018-04-01T22:36:20.751Z,7.70
2018-04-01T22:38:49.685Z,7.65
2018-04-01T22:41:18.047Z,7.71
2018-04-01T22:43:47.411Z,7.58
2018-04-01T22:46:15.873Z,7.51
2018-04-01T22:48:44.508Z,7.48
2018-04-01T22:51:13.071Z,7.43
2018-04-01T22:53:42.141Z,7.45
2018-04-01T22:56:17.748Z,7.38
2018-04-01T22:58:46.855Z,7.35
2018-04-01T23:01:21.916Z,7.30
2018-04-01T23:03:50.986Z,7.32
2018-04-01T23:06:20.776Z,7.25
2018-04-01T23:08:50.952Z,7.23
2018-04-01T23:11:19.526Z,7.17
2018-04-01T23:13:48.048Z,7.14
2018-04-01T23:16:17.290Z,7.14
2018-04-01T23:18:45.939Z,7.16
2018-04-01T23:21:18.171Z,7.01
2018-04-01T23:23:50.737Z,7.02
2018-04-01T23:26:19.060Z,7.00
2018-04-01T23:28:48.283Z,6.99
2018-04-01T23:31:16.844Z,6.95
2018-04-01T23:33:46.587Z,6.90
2018-04-01T23:36:15.677Z,6.85
2018-04-01T23:38:44.533Z,6.86
2018-04-01T23:41:13.772Z,6.88
2018-04-01T23:43:46.022Z,6.87
2018-04-01T23:46:16.513Z,6.85
2018-04-01T23:48:46.708Z,6.86
2018-04-01T23:51:15.133Z,6.80
2018-04-01T23:53:44.313Z,6.75
2018-04-01T23:56:14.226Z,6.69
2018-04-01T23:58:43.041Z,6.70
